KRVS/RVS METAR and TAF weather

Enter ICAO airport designator
Station Type Date Time Source
KRVS METAR 2021/08/04 17:53 UTC NOAA

KRVS 041753Z 09003KT 9SM CLR 30/18 A3008 RMK AO2 SLP187 T03000183 10306 20183 58006


Station Type Date Time Source
KRVS Decoded METAR 2021/08/04 17:53 UTC NOAA

TULSA JONES JR. AIRPORT, OK, United States (KRVS) 36-03N 095-59W 200M
Aug 04, 2021 - 01:53 PM EDT / 2021.08.04 1753 UTC
Wind: from the E (090 degrees) at 3 MPH (3 KT):0
Visibility: 9 mile(s):0
Sky conditions: clear
Temperature: 86.0 F (30.0 C)
Dew Point: 64.9 F (18.3 C)
Relative Humidity: 49%
Pressure (altimeter): 30.08 in. Hg (1018 hPa)
Pressure tendency: 0.02 inches (0.6 hPa) lower than three hours ago
ob: KRVS 041753Z 09003KT 9SM CLR 30/18 A3008 RMK AO2 SLP187 T03000183 10306 20183 58006
cycle: 18

Station Type Date Time Source
KRVS TAF 2021/08/04 18:33 UTC NOAA

TAF KRVS 041730Z 0418/0518 13004KT P6SM SCT050 SCT250

Example: see airport list